Terminal Aerodrome Forecast
Issued by NWS

Home | Current Version | Previous Version | Graphics & Text | Print | Product List | Glossary On
Versions: 1 2 3 4 5 6 7 8 9 10 11 12 13 14 15 16 17 18 19 20 21 22 23 24 25
000
FTUS43 KLOT 141459 AAA
TAFORD
TAF AMD
KORD 141459Z 1415/1518 21008KT P6SM SCT045 BKN120
     FM150300 22006KT P6SM SCT050 PROB30 1504/1508 5SM -TSRA
      OVC050CB
     FM151200 29006KT 6SM BR BKN030
     FM151600 01007KT P6SM SCT030=

USA.gov is the U.S. government's official web portal to all federal, state and local government web resources and services.